Time;durP1;ratioP1;P1;durP2;ratioP2;P2;SDS_P1;SDS_P2;PMS_P1;PMS_P2;Temp;Humidity;BMP_temperature;BMP_pressure;BME280_temperature;BME280_humidity;BME280_pressure;Samples;Min_cycle;Max_cycle;Signal;HPM_P1;HPM_P2
2023/07/23 00:04:43;;;;;;;7.70;5.70;;;;;;;10.15;64.83;99703.31;219192;1257;141775;-68
2023/07/23 00:09:47;;;;;;;5.80;4.80;;;;;;;10.12;64.82;99699.15;218653;1257;139852;-68
2023/07/23 00:14:51;;;;;;;8.40;5.60;;;;;;;10.05;64.99;99690.44;219038;1255;139851;-67
2023/07/23 00:19:54;;;;;;;6.30;5.30;;;;;;;10.01;65.07;99690.27;217791;1257;140741;-67
2023/07/23 00:24:59;;;;;;;11.10;5.90;;;;;;;9.98;65.40;99687.70;219056;1257;231326;-67
2023/07/23 00:30:04;;;;;;;6.80;5.50;;;;;;;9.96;65.53;99685.95;217932;1257;140752;-67
2023/07/23 00:35:10;;;;;;;6.20;5.60;;;;;;;9.92;65.86;99678.88;218072;1257;140889;-67
2023/07/23 00:40:14;;;;;;;7.10;5.60;;;;;;;9.85;65.97;99678.01;218215;1255;139841;-67
2023/07/23 00:45:19;;;;;;;11.00;5.90;;;;;;;9.85;66.34;99676.80;218858;1257;140114;-67
2023/07/23 00:50:25;;;;;;;7.10;5.00;;;;;;;9.83;66.30;99679.13;219055;1257;142503;-67
2023/07/23 00:55:30;;;;;;;6.30;5.30;;;;;;;9.76;66.57;99687.62;218562;1255;139474;-67
2023/07/23 01:00:35;;;;;;;9.10;5.90;;;;;;;9.75;67.01;99687.39;218952;1257;140048;-68
2023/07/23 01:05:45;;;;;;;5.70;4.90;;;;;;;9.75;67.19;99692.92;218456;1256;140348;-68
2023/07/23 01:10:50;;;;;;;8.40;5.50;;;;;;;9.70;67.25;99697.02;217999;1254;141226;-68
2023/07/23 01:15:56;;;;;;;7.70;5.20;;;;;;;9.69;67.36;99695.77;218780;1254;140307;-67
2023/07/23 01:21:01;;;;;;;6.50;5.20;;;;;;;9.67;67.73;99695.06;218323;1254;139947;-67
2023/07/23 01:26:07;;;;;;;6.70;4.60;;;;;;;9.61;67.52;99686.92;218143;1257;139529;-68
2023/07/23 01:31:12;;;;;;;8.20;5.20;;;;;;;9.53;67.47;99678.73;220197;1258;140227;-68
2023/07/23 01:36:17;;;;;;;6.90;5.80;;;;;;;9.45;67.81;99670.11;219446;1254;139870;-68
2023/07/23 01:41:22;;;;;;;6.00;5.00;;;;;;;9.45;68.19;99669.86;220681;1254;140444;-69
2023/07/23 01:46:26;;;;;;;12.10;6.40;;;;;;;9.49;68.13;99669.02;220184;1254;140146;-67
2023/07/23 01:51:31;;;;;;;7.10;6.20;;;;;;;9.51;68.51;99672.84;218830;1254;141279;-67
2023/07/23 01:56:35;;;;;;;5.80;5.10;;;;;;;9.55;68.63;99674.05;220419;1257;140348;-68
2023/07/23 02:01:40;;;;;;;6.60;5.90;;;;;;;9.55;68.62;99675.59;219556;1254;141132;-68
2023/07/23 02:06:44;;;;;;;8.10;6.40;;;;;;;9.53;68.58;99673.16;219296;1254;140167;-67
2023/07/23 02:11:48;;;;;;;7.60;5.20;;;;;;;9.51;68.59;99671.19;218967;1254;139485;-68
2023/07/23 02:16:52;;;;;;;6.80;5.20;;;;;;;9.43;68.63;99664.61;219518;1254;140215;-68
2023/07/23 02:21:57;;;;;;;6.80;5.70;;;;;;;9.35;68.73;99658.89;217985;1254;139620;-66
2023/07/23 02:27:02;;;;;;;6.10;4.70;;;;;;;9.32;69.01;99653.98;218561;1254;141885;-68
2023/07/23 02:32:07;;;;;;;7.10;6.40;;;;;;;9.32;69.24;99652.55;218561;1257;140441;-67
2023/07/23 02:37:12;;;;;;;7.80;5.70;;;;;;;9.30;69.24;99652.81;218398;1254;139396;-68
2023/07/23 02:42:16;;;;;;;7.60;5.50;;;;;;;9.26;69.35;99651.27;218703;1258;139997;-67
2023/07/23 02:47:21;;;;;;;8.50;5.90;;;;;;;9.19;69.44;99647.91;217953;1259;140836;-67
2023/07/23 02:52:26;;;;;;;5.60;5.00;;;;;;;9.14;69.63;99649.56;218422;1259;140017;-66
2023/07/23 02:57:31;;;;;;;7.90;5.30;;;;;;;9.12;69.51;99646.57;218909;1254;140150;-68
2023/07/23 03:02:36;;;;;;;6.80;5.90;;;;;;;9.06;69.77;99642.80;218075;1257;139822;-67
2023/07/23 03:07:41;;;;;;;6.00;5.40;;;;;;;9.01;69.89;99641.06;219355;1255;140249;-67
2023/07/23 03:12:46;;;;;;;7.40;5.70;;;;;;;8.97;70.27;99640.33;218057;1257;139824;-67
2023/07/23 03:17:51;;;;;;;32.80;11.10;;;;;;;8.98;70.79;99632.89;219771;1257;142564;-68
2023/07/23 03:22:55;;;;;;;16.40;6.00;;;;;;;8.97;70.61;99631.59;219953;1256;140287;-67
2023/07/23 03:28:00;;;;;;;5.40;4.90;;;;;;;8.99;70.90;99639.33;220447;1257;140722;-67
2023/07/23 03:33:04;;;;;;;5.60;4.80;;;;;;;9.03;70.64;99630.80;220659;1256;139449;-68
2023/07/23 03:38:09;;;;;;;6.50;5.80;;;;;;;9.12;70.68;99629.34;218712;1256;140976;-67
2023/07/23 03:43:13;;;;;;;6.10;5.00;;;;;;;9.21;70.89;99630.24;220195;1255;140425;-67
2023/07/23 03:48:17;;;;;;;8.10;4.60;;;;;;;9.40;71.15;99626.56;219557;1256;141569;-68
2023/07/23 03:53:21;;;;;;;8.10;6.10;;;;;;;9.60;71.24;99626.13;219833;1255;139934;-68
2023/07/23 03:58:25;;;;;;;7.70;5.70;;;;;;;9.84;71.39;99623.95;220290;1257;140650;-66
2023/07/23 04:03:29;;;;;;;10.00;5.70;;;;;;;10.16;71.44;99625.94;218783;1259;140431;-69
2023/07/23 04:08:33;;;;;;;11.70;6.10;;;;;;;10.54;71.68;99631.41;219656;1257;140398;-64
2023/07/23 04:13:37;;;;;;;13.90;6.20;;;;;;;10.98;71.95;99625.20;217558;1260;140143;-70
2023/07/23 04:18:48;;;;;;;7.50;4.80;;;;;;;11.42;71.57;99616.34;217872;1257;140736;-69
2023/07/23 04:24:03;;;;;;;9.60;6.10;;;;;;;11.75;71.70;99611.98;217764;1259;139778;-68
2023/07/23 04:29:08;;;;;;;7.20;5.50;;;;;;;12.21;71.45;99609.15;218698;1256;141156;-68
2023/07/23 04:34:12;;;;;;;7.20;5.30;;;;;;;12.68;71.09;99607.94;218003;1259;140189;-69
2023/07/23 04:39:17;;;;;;;5.80;5.00;;;;;;;12.97;70.73;99603.78;218002;1259;141037;-67
2023/07/23 04:44:21;;;;;;;4.90;4.30;;;;;;;13.38;70.09;99603.73;217930;1257;139833;-69
2023/07/23 04:49:25;;;;;;;5.60;4.40;;;;;;;13.81;69.55;99599.64;217534;1256;139668;-65
2023/07/23 04:54:30;;;;;;;6.30;5.30;;;;;;;14.36;69.02;99603.40;219393;1257;139575;-69
2023/07/23 04:59:35;;;;;;;7.40;4.90;;;;;;;14.89;68.14;99599.53;218309;1257;139719;-66
2023/07/23 05:04:40;;;;;;;9.00;4.80;;;;;;;15.31;67.49;99597.85;218416;1255;235229;-71
2023/07/23 05:09:44;;;;;;;6.70;5.20;;;;;;;15.70;66.27;99599.84;217724;1257;141091;-66
2023/07/23 05:14:49;;;;;;;7.10;4.80;;;;;;;16.10;65.61;99595.54;218493;1256;140845;-68
2023/07/23 05:19:54;;;;;;;7.60;4.90;;;;;;;16.60;64.80;99594.78;218921;1259;139943;-67
2023/07/23 05:25:03;;;;;;;5.10;4.50;;;;;;;17.82;62.99;99588.64;219827;1256;139859;-68
2023/07/23 05:30:07;;;;;;;8.00;4.50;;;;;;;19.11;60.93;99585.55;220356;1260;141412;-71
2023/07/23 05:35:13;;;;;;;9.00;5.00;;;;;;;19.92;59.16;99583.45;220359;1256;139799;-70
2023/07/23 05:40:17;;;;;;;8.10;4.30;;;;;;;21.34;57.38;99586.44;220366;1257;139390;-69
2023/07/23 05:45:23;;;;;;;4.50;4.10;;;;;;;22.46;55.30;99584.02;220067;1259;139543;-70
2023/07/23 05:50:28;;;;;;;7.20;4.50;;;;;;;21.85;54.20;99578.06;220061;1256;139524;-70
2023/07/23 05:55:33;;;;;;;4.70;4.30;;;;;;;21.33;53.74;99577.16;219343;1256;140465;-71
2023/07/23 06:00:38;;;;;;;9.00;4.70;;;;;;;22.58;52.86;99571.84;218264;1260;140283;-70
2023/07/23 06:05:42;;;;;;;7.10;4.60;;;;;;;22.67;52.34;99564.55;218805;1257;139620;-72
2023/07/23 06:10:47;;;;;;;4.60;3.70;;;;;;;22.32;51.75;99560.09;219232;1260;140603;-72
2023/07/23 06:15:51;;;;;;;6.00;3.40;;;;;;;22.14;51.46;99560.52;218381;1257;139059;-71
2023/07/23 06:20:55;;;;;;;5.30;3.70;;;;;;;22.44;51.04;99549.33;219467;1257;141219;-73
2023/07/23 06:26:02;;;;;;;8.70;3.60;;;;;;;22.87;50.54;99548.18;218577;1257;140016;-71
2023/07/23 06:31:11;;;;;;;4.50;4.20;;;;;;;23.10;49.53;99543.08;218480;1257;139215;-71
2023/07/23 06:36:15;;;;;;;4.10;3.80;;;;;;;22.82;48.97;99540.98;218110;1256;138913;-69
2023/07/23 06:41:19;;;;;;;6.40;4.50;;;;;;;22.49;48.90;99536.36;218171;1259;140626;-67
2023/07/23 06:46:23;;;;;;;4.90;3.70;;;;;;;22.21;48.92;99527.69;218034;1259;139769;-66
2023/07/23 06:51:28;;;;;;;4.30;3.80;;;;;;;22.07;49.03;99523.60;218371;1257;139807;-68
2023/07/23 06:56:34;;;;;;;4.20;3.50;;;;;;;21.88;48.98;99522.15;218851;1259;139308;-68
2023/07/23 07:01:40;;;;;;;4.50;3.80;;;;;;;21.71;49.10;99521.91;218089;1259;139252;-70
2023/07/23 07:06:44;;;;;;;7.00;3.60;;;;;;;21.64;48.95;99516.80;218242;1258;139188;-69
2023/07/23 07:11:50;;;;;;;5.40;4.10;;;;;;;21.67;49.08;99509.57;218674;1259;140391;-70
2023/07/23 07:16:55;;;;;;;5.10;4.30;;;;;;;21.90;49.21;99502.45;219874;1256;139597;-66
2023/07/23 07:22:00;;;;;;;5.00;3.20;;;;;;;22.12;48.66;99495.76;219506;1259;139108;-65
2023/07/23 07:27:08;;;;;;;3.80;3.00;;;;;;;22.93;48.11;99488.64;219970;1257;140144;-66
2023/07/23 07:32:13;;;;;;;9.90;4.50;;;;;;;24.19;47.53;99481.67;220610;1258;139031;-67
2023/07/23 07:37:17;;;;;;;3.70;3.40;;;;;;;25.58;46.48;99477.85;220648;1256;139998;-67
2023/07/23 07:42:22;;;;;;;5.10;3.50;;;;;;;26.32;43.82;99475.37;219501;1257;140082;-67
2023/07/23 07:47:26;;;;;;;3.60;3.10;;;;;;;26.72;42.97;99470.81;219165;1257;140050;-67
2023/07/23 07:52:30;;;;;;;3.80;3.30;;;;;;;27.25;41.91;99471.23;218834;1256;139972;-66
2023/07/23 07:57:35;;;;;;;5.00;3.90;;;;;;;27.68;41.36;99466.54;219952;1256;139278;-66
2023/07/23 08:02:39;;;;;;;5.20;3.40;;;;;;;28.25;40.80;99464.40;218388;1257;139190;-66
2023/07/23 08:07:44;;;;;;;6.00;2.90;;;;;;;28.73;39.46;99463.67;218259;1258;139206;-66
2023/07/23 08:12:51;;;;;;;4.50;3.20;;;;;;;29.00;37.79;99454.95;218649;1260;138785;-66
2023/07/23 08:17:56;;;;;;;3.80;3.00;;;;;;;29.18;37.78;99453.79;217792;1254;140207;-66
2023/07/23 08:23:02;;;;;;;;;;;;;;;28.98;36.44;99452.10;219753;1254;139163;-68
2023/07/23 08:28:08;;;;;;;4.20;3.20;;;;;;;28.97;36.99;99442.51;219463;1254;126350;-70
2023/07/23 08:33:17;;;;;;;2.40;2.10;;;;;;;29.47;37.28;99440.55;219212;1254;139095;-70
2023/07/23 08:38:24;;;;;;;5.70;3.50;;;;;;;29.59;35.85;99430.69;218608;1260;139671;-69
2023/07/23 08:43:53;;;;;;;5.70;3.30;;;;;;;28.95;35.94;99435.17;218524;1257;139808;-69
2023/07/23 08:49:09;;;;;;;3.20;3.00;;;;;;;28.51;36.08;99431.35;217985;1257;139475;-73
2023/07/23 08:54:16;;;;;;;3.50;3.20;;;;;;;28.31;36.40;99440.50;218438;1257;138833;-71
2023/07/23 08:59:24;;;;;;;5.20;3.10;;;;;;;28.15;36.24;99437.08;218338;1259;139743;-69
2023/07/23 09:04:29;;;;;;;5.90;3.40;;;;;;;28.11;36.59;99439.27;218966;1256;139880;-70
2023/07/23 09:09:34;;;;;;;3.20;3.00;;;;;;;28.40;36.78;99430.67;218537;1257;140226;-70
2023/07/23 09:14:45;;;;;;;9.80;3.80;;;;;;;28.47;36.61;99426.55;218286;1259;140185;-69
2023/07/23 09:19:53;;;;;;;4.30;3.00;;;;;;;29.06;36.60;99422.59;218347;1259;139265;-69
2023/07/23 09:25:01;;;;;;;5.40;3.30;;;;;;;29.54;36.10;99418.38;220334;1257;139333;-68
2023/07/23 09:30:06;;;;;;;3.10;2.80;;;;;;;29.94;35.44;99414.59;219261;1256;140303;-67
2023/07/23 09:35:10;;;;;;;7.80;3.50;;;;;;;30.14;34.93;99412.51;220478;1257;139739;-68
2023/07/23 09:40:17;;;;;;;4.00;3.20;;;;;;;29.79;34.17;99414.13;218787;1256;140691;-68
2023/07/23 09:45:28;;;;;;;2.90;2.70;;;;;;;29.71;34.25;99413.00;218666;1260;140746;-68
2023/07/23 09:50:33;;;;;;;3.10;2.90;;;;;;;30.00;34.29;99398.26;219538;1256;139611;-70
2023/07/23 09:55:39;;;;;;;5.20;2.60;;;;;;;29.46;33.64;99397.22;219244;1257;139848;-69
2023/07/23 10:00:44;;;;;;;;;;;;;;;29.24;34.40;99393.73;219218;1257;223610;-67
2023/07/23 10:05:49;;;;;;;2.90;2.70;;;;;;;29.45;33.97;99395.02;221002;1254;126994;-69
2023/07/23 10:10:54;;;;;;;2.80;2.40;;;;;;;28.90;33.50;99396.58;220645;1255;140419;-66
2023/07/23 10:16:00;;;;;;;3.90;3.20;;;;;;;28.46;33.95;99405.69;218774;1257;139776;-68
2023/07/23 10:21:07;;;;;;;3.00;2.60;;;;;;;28.19;34.03;99404.52;220412;1257;139946;-70
2023/07/23 10:26:22;;;;;;;2.70;2.50;;;;;;;28.16;34.32;99402.96;219750;1256;139789;-69
2023/07/23 10:31:28;;;;;;;3.70;2.70;;;;;;;28.39;34.23;99401.19;219151;1257;139875;-67
2023/07/23 10:37:13;;;;;;;7.30;3.40;;;;;;;28.65;34.11;99395.66;219707;1257;140706;-66
2023/07/23 10:42:29;;;;;;;2.60;2.50;;;;;;;29.21;33.73;99391.00;218687;1257;139895;-67
2023/07/23 10:47:38;;;;;;;;;;;;;;;29.64;33.02;99386.91;219025;1256;138915;-67
2023/07/23 10:52:51;;;;;;;2.40;2.20;;;;;;;29.83;32.84;99377.84;218343;1257;125818;-67
2023/07/23 10:57:57;;;;;;;3.80;2.50;;;;;;;30.00;32.10;99377.91;219141;1254;139109;-66
2023/07/23 11:03:02;;;;;;;5.20;2.90;;;;;;;30.22;31.87;99363.91;218008;1254;142080;-72
2023/07/23 11:08:23;;;;;;;5.50;2.60;;;;;;;29.95;30.94;99368.50;217987;1254;139891;-71
2023/07/23 11:13:35;;;;;;;7.40;3.20;;;;;;;30.14;30.95;99363.03;218731;1257;140331;-70
2023/07/23 11:18:39;;;;;;;7.20;2.60;;;;;;;29.92;30.62;99355.76;218095;1259;138495;-68
2023/07/23 11:23:43;;;;;;;3.20;2.90;;;;;;;29.53;30.87;99353.48;217942;1259;139365;-66
2023/07/23 11:28:50;;;;;;;4.40;2.90;;;;;;;29.44;30.83;99352.17;218988;1256;140650;-67
2023/07/23 11:33:56;;;;;;;5.30;3.30;;;;;;;29.35;30.92;99351.46;218244;1257;139720;-69
2023/07/23 11:39:02;;;;;;;3.00;2.80;;;;;;;29.25;31.13;99351.63;218524;1257;161253;-70
2023/07/23 11:44:08;;;;;;;4.80;3.20;;;;;;;29.51;31.08;99343.33;220526;1257;140151;-68
2023/07/23 11:49:13;;;;;;;3.60;2.60;;;;;;;29.38;31.07;99341.00;218816;1256;139761;-67
2023/07/23 11:54:17;;;;;;;8.50;2.80;;;;;;;29.24;31.07;99340.33;219136;1256;139590;-69
2023/07/23 11:59:21;;;;;;;2.30;2.10;;;;;;;29.14;31.30;99337.41;218681;1257;138967;-69
2023/07/23 12:04:26;;;;;;;7.70;2.90;;;;;;;29.11;31.44;99331.48;219091;1256;139418;-67
2023/07/23 12:09:33;;;;;;;3.20;2.90;;;;;;;29.08;31.67;99328.30;219108;1256;139153;-69
2023/07/23 12:14:38;;;;;;;5.30;3.00;;;;;;;29.01;31.73;99323.42;219916;1256;139863;-68
2023/07/23 12:19:43;;;;;;;3.10;2.70;;;;;;;29.03;31.88;99311.85;219220;1254;138986;-72
2023/07/23 12:24:48;;;;;;;2.60;2.20;;;;;;;29.03;31.97;99307.84;218695;1256;470376;-72
2023/07/23 12:29:53;;;;;;;3.90;3.00;;;;;;;29.01;32.23;99305.70;218620;1256;139847;-72
2023/07/23 12:34:57;;;;;;;2.70;2.50;;;;;;;29.23;32.14;99298.19;218441;1258;139185;-71
2023/07/23 12:40:06;;;;;;;3.50;3.20;;;;;;;29.31;32.09;99303.79;218678;1256;140241;-67
2023/07/23 12:45:11;;;;;;;3.50;3.00;;;;;;;29.06;31.85;99299.18;217963;1257;138901;-68
2023/07/23 12:50:19;;;;;;;5.40;2.80;;;;;;;28.82;32.16;99296.98;219075;1257;140384;-68
2023/07/23 12:55:23;;;;;;;2.40;2.30;;;;;;;28.67;32.38;99296.10;218632;1256;139247;-69
2023/07/23 13:00:28;;;;;;;5.10;3.20;;;;;;;28.61;32.81;99284.63;218890;1259;139871;-71
2023/07/23 13:05:34;;;;;;;6.20;3.10;;;;;;;28.42;32.70;99280.15;218499;1256;139398;-69
2023/07/23 13:10:38;;;;;;;;;;;;;;;28.25;33.03;99275.45;217393;1257;139028;-68
2023/07/23 13:15:42;;;;;;;2.60;2.10;;;;;;;28.23;33.24;99270.23;219162;1257;125651;-73
2023/07/23 13:20:47;;;;;;;3.80;3.40;;;;;;;28.69;33.45;99262.52;218752;1256;159421;-71
2023/07/23 13:25:52;;;;;;;13.40;5.30;;;;;;;29.00;33.23;99263.83;218250;1257;139409;-72
2023/07/23 13:30:58;;;;;;;4.40;3.00;;;;;;;28.84;32.72;99254.92;218173;1256;139621;-75
2023/07/23 13:36:04;;;;;;;3.80;3.00;;;;;;;28.72;32.98;99253.40;218619;1256;139401;-76
2023/07/23 13:41:10;;;;;;;6.40;2.90;;;;;;;28.71;33.02;99242.02;218079;1257;139102;-70
2023/07/23 13:46:15;;;;;;;3.10;2.90;;;;;;;28.70;32.67;99245.14;219338;1256;140213;-72
2023/07/23 13:51:21;;;;;;;;;;;;;;;28.80;32.50;99240.13;219395;1256;139162;-66
2023/07/23 13:56:25;;;;;;;5.20;3.50;;;;;;;29.07;32.13;99228.39;220795;1256;125729;-66
2023/07/23 14:01:30;;;;;;;5.10;3.50;;;;;;;29.27;31.97;99222.64;218874;1256;139727;-68
2023/07/23 14:06:35;;;;;;;2.50;2.20;;;;;;;29.31;31.62;99219.94;217855;1259;140174;-68
2023/07/23 14:11:39;;;;;;;2.60;2.40;;;;;;;29.11;31.17;99212.92;218342;1256;141226;-68
2023/07/23 14:16:43;;;;;;;3.40;2.80;;;;;;;29.23;31.41;99213.02;218584;1257;139939;-76
2023/07/23 14:21:48;;;;;;;4.30;3.20;;;;;;;29.52;31.85;99208.94;219265;1256;139483;-72
2023/07/23 14:26:53;;;;;;;3.30;3.00;;;;;;;29.44;31.35;99208.36;218797;1256;139301;-69
2023/07/23 14:31:58;;;;;;;3.60;2.80;;;;;;;29.15;31.57;99212.52;218087;1256;139063;-67
2023/07/23 14:37:04;;;;;;;29.10;5.40;;;;;;;28.88;31.41;99201.46;218550;1256;139330;-72
2023/07/23 14:42:11;;;;;;;4.70;2.90;;;;;;;28.82;31.54;99194.63;218332;1256;140813;-69
2023/07/23 14:47:15;;;;;;;2.90;2.40;;;;;;;28.79;31.80;99201.94;218843;1254;140665;-74
2023/07/23 14:52:22;;;;;;;3.10;2.80;;;;;;;28.59;31.61;99202.02;218389;1256;140351;-67
2023/07/23 14:57:26;;;;;;;2.50;2.30;;;;;;;28.62;31.92;99199.64;218692;1256;139815;-65
2023/07/23 15:02:30;;;;;;;7.00;3.50;;;;;;;28.70;31.67;99189.73;218468;1255;139821;-66
2023/07/23 15:07:35;;;;;;;;;;;;;;;28.82;31.79;99176.44;218452;1256;139512;-68
2023/07/23 15:12:40;;;;;;;3.10;2.80;;;;;;;28.65;31.74;99173.52;218406;1259;125706;-67
2023/07/23 15:17:46;;;;;;;5.80;2.70;;;;;;;28.44;31.84;99168.95;218150;1257;139607;-70
2023/07/23 15:22:54;;;;;;;5.20;2.90;;;;;;;28.18;31.92;99170.52;219146;1256;139899;-70
2023/07/23 15:28:02;;;;;;;4.00;3.10;;;;;;;27.99;31.88;99171.14;218600;1258;139227;-72
2023/07/23 15:33:07;;;;;;;3.40;2.80;;;;;;;27.98;32.06;99162.11;218439;1256;140056;-69
2023/07/23 15:38:12;;;;;;;4.50;2.80;;;;;;;28.16;32.13;99153.43;219524;1255;141472;-65
2023/07/23 15:43:17;;;;;;;13.20;2.50;;;;;;;28.27;32.30;99144.48;218362;1255;141178;-67
2023/07/23 15:48:22;;;;;;;7.00;2.80;;;;;;;28.32;32.01;99145.11;218274;1257;141436;-69
2023/07/23 15:53:26;;;;;;;3.00;2.40;;;;;;;28.24;32.08;99138.32;218832;1257;139415;-67
2023/07/23 15:58:31;;;;;;;3.00;2.70;;;;;;;28.11;31.86;99132.98;220580;1256;139404;-68
2023/07/23 16:03:35;;;;;;;2.60;2.40;;;;;;;27.99;31.65;99124.32;220625;1255;141204;-67
2023/07/23 16:08:40;;;;;;;5.40;2.40;;;;;;;27.86;31.55;99122.84;220510;1255;139854;-70
2023/07/23 16:13:45;;;;;;;5.70;3.10;;;;;;;27.78;31.45;99122.73;218586;1259;139815;-73
2023/07/23 16:18:50;;;;;;;5.10;2.80;;;;;;;27.76;31.58;99123.16;218927;1256;140737;-72
2023/07/23 16:23:55;;;;;;;3.10;2.30;;;;;;;27.77;31.69;99121.63;219396;1256;139951;-66
2023/07/23 16:29:00;;;;;;;2.50;2.30;;;;;;;27.86;31.75;99116.27;219808;1256;139536;-64
2023/07/23 16:34:05;;;;;;;2.10;1.90;;;;;;;27.99;31.90;99111.34;219592;1256;139468;-68
2023/07/23 16:39:13;;;;;;;3.30;2.90;;;;;;;28.12;31.83;99107.95;219782;1255;139825;-68
2023/07/23 16:44:19;;;;;;;3.50;2.60;;;;;;;28.25;31.89;99104.34;218160;1256;140504;-69
2023/07/23 16:49:23;;;;;;;2.90;2.30;;;;;;;28.29;31.75;99098.38;218797;1257;140186;-73
2023/07/23 16:54:28;;;;;;;4.10;3.10;;;;;;;28.21;31.48;99100.73;217755;1257;139103;-67
2023/07/23 16:59:33;;;;;;;3.30;2.80;;;;;;;28.12;31.10;99090.11;218458;1258;139388;-67
2023/07/23 17:04:40;;;;;;;2.50;2.30;;;;;;;28.03;31.06;99084.80;218395;1259;139927;-67
2023/07/23 17:09:45;;;;;;;5.30;2.30;;;;;;;27.94;30.90;99084.64;217834;1254;141374;-67
2023/07/23 17:14:52;;;;;;;7.30;2.60;;;;;;;27.80;30.65;99080.64;218859;1256;139520;-70
2023/07/23 17:19:58;;;;;;;5.20;3.00;;;;;;;27.63;30.67;99085.27;217998;1257;139522;-73
2023/07/23 17:25:05;;;;;;;4.00;2.20;;;;;;;27.42;30.63;99082.52;218735;1259;139140;-73
2023/07/23 17:30:16;;;;;;;3.20;2.40;;;;;;;27.25;30.60;99086.64;218276;1255;139187;-72
2023/07/23 17:35:23;;;;;;;3.20;2.60;;;;;;;27.06;30.93;99086.20;219556;1256;140006;-72
2023/07/23 17:40:29;;;;;;;3.10;2.30;;;;;;;26.90;30.99;99078.26;219029;1254;138971;-72
2023/07/23 17:45:34;;;;;;;74.60;7.20;;;;;;;26.75;31.27;99078.95;218867;1256;139209;-72
2023/07/23 17:50:39;;;;;;;7.10;3.20;;;;;;;26.63;31.38;99077.04;219133;1255;139667;-72
2023/07/23 17:55:48;;;;;;;3.00;2.80;;;;;;;26.50;31.70;99073.33;220246;1256;139064;-72
2023/07/23 18:00:54;;;;;;;2.70;2.50;;;;;;;26.42;31.59;99068.85;220690;1255;211010;-73
2023/07/23 18:05:58;;;;;;;2.70;2.30;;;;;;;26.35;32.52;99065.02;220219;1256;139943;-72
2023/07/23 18:11:04;;;;;;;4.00;2.30;;;;;;;26.24;33.44;99064.19;220457;1254;140043;-73
2023/07/23 18:16:10;;;;;;;6.20;2.60;;;;;;;26.07;34.13;99058.80;219873;1254;139167;-72
2023/07/23 18:21:15;;;;;;;2.40;2.30;;;;;;;25.87;34.62;99059.72;218794;1254;139736;-71
2023/07/23 18:26:20;;;;;;;4.40;2.60;;;;;;;25.67;35.68;99050.77;218870;1256;140038;-72
2023/07/23 18:31:25;;;;;;;3.10;2.90;;;;;;;25.48;36.51;99050.42;219582;1254;139151;-71
2023/07/23 18:36:40;;;;;;;2.80;2.60;;;;;;;25.30;37.11;99049.80;218562;1254;140413;-71
2023/07/23 18:41:47;;;;;;;4.10;3.60;;;;;;;25.09;37.84;99043.06;218116;1254;140036;-71
2023/07/23 18:46:52;;;;;;;4.40;2.80;;;;;;;24.86;39.24;99040.52;218634;1258;141422;-72
2023/07/23 18:51:58;;;;;;;3.30;3.00;;;;;;;24.64;39.69;99040.43;218524;1258;139035;-71
2023/07/23 18:57:04;;;;;;;3.90;2.80;;;;;;;24.43;40.28;99039.34;218884;1256;139685;-71
2023/07/23 19:02:09;;;;;;;11.00;3.80;;;;;;;24.25;40.78;99039.23;218739;1257;139005;-69
2023/07/23 19:07:16;;;;;;;4.60;2.50;;;;;;;24.06;41.37;99037.69;218452;1254;139308;-72
2023/07/23 19:12:20;;;;;;;4.20;2.80;;;;;;;23.89;42.07;99036.14;218986;1256;138885;-71
2023/07/23 19:17:29;;;;;;;4.10;3.10;;;;;;;23.73;42.67;99033.84;218636;1254;139585;-72
2023/07/23 19:22:35;;;;;;;3.00;2.50;;;;;;;23.56;43.07;99025.48;218636;1258;140449;-71
2023/07/23 19:27:41;;;;;;;8.10;2.90;;;;;;;23.38;43.71;99029.73;219045;1254;139062;-69
2023/07/23 19:32:46;;;;;;;6.30;2.60;;;;;;;23.25;43.95;99027.02;218707;1254;140072;-72
2023/07/23 19:37:52;;;;;;;5.00;3.30;;;;;;;23.12;43.95;99024.56;219102;1254;139053;-71
2023/07/23 19:42:58;;;;;;;4.60;3.20;;;;;;;23.00;43.99;99025.84;219593;1255;139574;-72
2023/07/23 19:48:03;;;;;;;5.60;3.80;;;;;;;22.93;43.29;99027.61;220084;1254;139869;-71
2023/07/23 19:53:09;;;;;;;14.50;4.40;;;;;;;22.91;43.08;99030.34;219240;1255;140297;-72
2023/07/23 19:58:14;;;;;;;8.80;3.90;;;;;;;22.92;43.26;99027.89;219286;1254;139461;-71
2023/07/23 20:03:18;;;;;;;7.30;4.70;;;;;;;22.89;44.22;99023.60;220290;1255;139452;-72
2023/07/23 20:08:24;;;;;;;7.40;5.20;;;;;;;22.84;43.31;99026.84;219182;1258;140217;-72
2023/07/23 20:13:33;;;;;;;6.80;5.10;;;;;;;22.82;43.26;99010.54;218079;1257;139362;-72
2023/07/23 20:18:38;;;;;;;7.20;3.50;;;;;;;22.80;43.40;99040.67;219545;1259;139119;-71
2023/07/23 20:23:43;;;;;;;10.90;4.10;;;;;;;22.78;43.05;99041.61;218332;1254;140056;-70
2023/07/23 20:28:49;;;;;;;3.70;3.40;;;;;;;22.82;42.79;99040.20;219073;1258;139358;-70
2023/07/23 20:33:55;;;;;;;4.70;3.80;;;;;;;22.89;42.79;99073.38;218338;1256;139454;-71
2023/07/23 20:39:02;;;;;;;3.40;3.20;;;;;;;22.94;42.67;99091.77;218913;1258;138630;-71
2023/07/23 20:44:07;;;;;;;6.20;3.50;;;;;;;22.98;42.55;99090.94;218310;1257;139202;-70
2023/07/23 20:49:12;;;;;;;5.80;3.30;;;;;;;23.01;42.36;99084.61;218318;1258;139347;-70
2023/07/23 20:54:17;;;;;;;4.40;3.50;;;;;;;23.04;42.23;99085.04;218540;1254;139349;-71
2023/07/23 20:59:22;;;;;;;6.90;4.20;;;;;;;23.04;42.11;99092.64;219105;1255;139622;-71
2023/07/23 21:04:27;;;;;;;3.90;3.50;;;;;;;23.02;41.96;99107.02;218833;1257;139197;-68
2023/07/23 21:09:32;;;;;;;5.10;3.90;;;;;;;23.00;42.12;99115.32;218588;1254;139022;-71
2023/07/23 21:14:38;;;;;;;9.30;4.30;;;;;;;22.96;42.56;99107.26;219374;1256;140300;-71
2023/07/23 21:19:42;;;;;;;;;;;;;;;22.90;42.92;99110.84;218209;1254;139278;-66
2023/07/23 21:24:49;;;;;;;6.90;3.80;;;;;;;22.79;43.45;99116.17;218956;1254;126255;-70
2023/07/23 21:29:54;;;;;;;3.70;3.40;;;;;;;22.71;44.60;99110.39;218243;1254;140245;-71
2023/07/23 21:35:00;;;;;;;4.50;4.00;;;;;;;22.60;45.37;99115.02;219002;1258;139873;-70
2023/07/23 21:40:06;;;;;;;;;;;;;;;22.45;45.79;99115.76;220125;1254;139020;-71
2023/07/23 21:45:10;;;;;;;4.10;3.70;;;;;;;22.30;46.03;99108.46;219961;1254;126283;-71
2023/07/23 21:50:16;;;;;;;5.60;3.60;;;;;;;22.15;46.84;99108.50;219582;1258;139737;-71
2023/07/23 21:55:22;;;;;;;19.10;5.30;;;;;;;22.01;47.28;99105.80;218588;1257;139330;-70
2023/07/23 22:00:26;;;;;;;6.70;4.30;;;;;;;21.89;48.26;99099.95;220232;1255;139463;-71
2023/07/23 22:05:31;;;;;;;7.90;4.70;;;;;;;21.80;48.88;99107.48;219762;1254;139084;-70
2023/07/23 22:10:36;;;;;;;4.30;3.90;;;;;;;21.69;49.29;99108.05;218568;1257;139718;-70
2023/07/23 22:15:42;;;;;;;4.50;3.30;;;;;;;21.51;49.52;99099.35;219166;1257;139746;-68
2023/07/23 22:20:47;;;;;;;4.60;3.70;;;;;;;21.28;49.79;99093.93;218908;1257;138853;-70
2023/07/23 22:25:54;;;;;;;5.30;4.40;;;;;;;21.15;50.34;99101.88;219023;1258;140276;-70
2023/07/23 22:30:58;;;;;;;9.40;4.60;;;;;;;21.05;50.93;99106.23;218243;1259;139076;-68
2023/07/23 22:36:02;;;;;;;6.10;4.30;;;;;;;21.03;51.66;99109.23;219567;1257;139901;-70
2023/07/23 22:41:08;;;;;;;4.80;4.10;;;;;;;21.01;52.17;99106.75;218269;1254;140218;-69
2023/07/23 22:46:13;;;;;;;4.10;3.70;;;;;;;20.96;52.66;99100.63;218601;1257;139375;-69
2023/07/23 22:51:18;;;;;;;4.50;4.10;;;;;;;20.89;53.27;99099.05;218475;1257;139090;-70
2023/07/23 22:56:24;;;;;;;4.70;4.30;;;;;;;20.82;53.55;99106.09;218270;1254;140052;-72
2023/07/23 23:01:29;;;;;;;4.30;3.90;;;;;;;20.74;53.62;99107.42;218637;1254;139607;-72
2023/07/23 23:06:35;;;;;;;6.00;4.70;;;;;;;20.65;53.77;99110.02;218719;1258;139342;-70
2023/07/23 23:11:40;;;;;;;11.40;3.80;;;;;;;20.56;54.16;99102.33;218402;1258;139087;-73
2023/07/23 23:16:45;;;;;;;5.60;4.10;;;;;;;20.45;54.53;99098.13;218231;1258;140922;-69
2023/07/23 23:21:50;;;;;;;9.70;3.70;;;;;;;20.34;54.55;99106.27;218535;1259;140245;-70
2023/07/23 23:26:56;;;;;;;6.00;5.20;;;;;;;20.27;54.84;99111.13;219229;1254;138924;-73
2023/07/23 23:32:01;;;;;;;4.90;4.10;;;;;;;20.25;55.14;99126.12;218939;1258;139325;-73